createdAt,value
2023-05-06T00:01:59.782Z,11.20
2023-05-06T00:04:26.892Z,9.85
2023-05-06T00:06:54.299Z,13.82
2023-05-06T00:09:21.265Z,9.75
2023-05-06T00:11:48.033Z,9.85
2023-05-06T00:14:14.593Z,9.40
2023-05-06T00:16:41.296Z,11.20
2023-05-06T00:19:07.993Z,17.80
2023-05-06T00:21:34.552Z,14.02
2023-05-06T00:24:01.135Z,14.85
2023-05-06T00:26:27.726Z,13.88
2023-05-06T00:28:54.273Z,14.95
2023-05-06T00:31:20.842Z,9.75
2023-05-06T00:33:47.457Z,10.35
2023-05-06T00:36:14.634Z,8.82
2023-05-06T00:38:41.269Z,8.88
2023-05-06T00:41:08.233Z,8.25
2023-05-06T00:43:34.843Z,8.93
2023-05-06T00:46:01.693Z,7.80
2023-05-06T00:48:28.503Z,7.25
2023-05-06T00:50:55.526Z,6.40
2023-05-06T00:53:22.148Z,6.47
2023-05-06T00:55:49.731Z,6.25
2023-05-06T00:58:16.366Z,6.10
2023-05-06T01:00:42.986Z,9.50
2023-05-06T01:03:09.669Z,15.20
2023-05-06T01:05:49.727Z,11.60
2023-05-06T01:08:30.205Z,8.95
2023-05-06T01:11:05.938Z,8.70
2023-05-06T01:13:36.261Z,8.02
2023-05-06T01:16:04.988Z,8.50
2023-05-06T01:18:32.686Z,10.07
2023-05-06T01:21:00.261Z,8.32
2023-05-06T01:23:26.950Z,8.30
2023-05-06T01:25:53.518Z,8.73
2023-05-06T01:28:20.116Z,9.38
2023-05-06T01:30:52.391Z,7.38
2023-05-06T01:33:38.675Z,9.95
2023-05-06T01:36:29.476Z,9.93
2023-05-06T01:39:08.596Z,8.63
2023-05-06T01:41:36.342Z,12.20
2023-05-06T01:44:04.662Z,19.73
2023-05-06T01:46:32.140Z,20.05
2023-05-06T01:49:02.738Z,12.57
2023-05-06T01:51:29.409Z,11.45
2023-05-06T01:53:56.012Z,9.40
2023-05-06T01:56:22.570Z,12.40
2023-05-06T01:58:49.155Z,9.85
2023-05-06T02:01:15.778Z,9.18
2023-05-06T02:03:42.417Z,8.75
2023-05-06T02:06:09.201Z,8.90
2023-05-06T02:08:35.852Z,7.93
2023-05-06T02:11:02.469Z,9.43
2023-05-06T02:13:29.007Z,11.02
2023-05-06T02:15:56.134Z,9.55
2023-05-06T02:18:22.735Z,8.45
2023-05-06T02:20:49.411Z,8.82
2023-05-06T02:23:16.309Z,11.90
2023-05-06T02:25:43.222Z,19.17
2023-05-06T02:28:09.830Z,13.55
2023-05-06T02:30:36.773Z,10.90
2023-05-06T02:33:03.567Z,8.70
2023-05-06T02:35:30.289Z,9.02
2023-05-06T02:37:56.913Z,8.73
2023-05-06T02:40:23.550Z,8.80
2023-05-06T02:42:50.442Z,9.05
2023-05-06T02:45:17.143Z,9.05
2023-05-06T02:47:43.839Z,17.40
2023-05-06T02:50:10.573Z,11.25
2023-05-06T02:52:37.196Z,13.20
2023-05-06T02:55:03.922Z,12.25
2023-05-06T02:57:30.533Z,17.45
2023-05-06T02:59:57.177Z,19.38
2023-05-06T03:02:23.795Z,21.65
2023-05-06T03:04:51.046Z,16.25
2023-05-06T03:07:17.675Z,12.77
2023-05-06T03:09:44.312Z,13.02
2023-05-06T03:12:11.935Z,11.63
2023-05-06T03:14:38.554Z,13.07
2023-05-06T03:17:05.131Z,16.40
2023-05-06T03:19:31.732Z,14.15
2023-05-06T03:21:58.281Z,20.10
2023-05-06T03:24:25.252Z,15.52
2023-05-06T03:26:51.969Z,19.20
2023-05-06T03:29:18.642Z,21.65
2023-05-06T03:31:45.503Z,14.38
2023-05-06T03:34:12.225Z,21.08
2023-05-06T03:36:38.841Z,12.93
2023-05-06T03:39:05.450Z,11.65
2023-05-06T03:41:32.085Z,16.35
2023-05-06T03:43:58.641Z,14.55
2023-05-06T03:46:25.361Z,14.02
2023-05-06T03:48:52.447Z,15.57
2023-05-06T03:51:19.082Z,16.83
2023-05-06T03:53:45.720Z,12.77
2023-05-06T03:56:12.279Z,11.52
2023-05-06T03:58:38.952Z,16.33
2023-05-06T04:01:05.643Z,20.67
2023-05-06T04:03:32.390Z,11.45
2023-05-06T04:05:59.373Z,13.18
2023-05-06T04:08:25.957Z,12.02
2023-05-06T04:10:52.516Z,10.75
2023-05-06T04:13:19.762Z,10.63
2023-05-06T04:15:46.438Z,10.68
2023-05-06T04:18:18.874Z,11.10
2023-05-06T04:20:49.088Z,11.05
2023-05-06T04:23:16.096Z,9.45
2023-05-06T04:25:44.432Z,9.18
2023-05-06T04:30:39.030Z,9.13
2023-05-06T04:33:05.901Z,9.18
2023-05-06T04:35:32.551Z,9.38
2023-05-06T04:37:59.114Z,10.20
2023-05-06T04:40:27.569Z,11.60
2023-05-06T04:45:49.591Z,9.88
2023-05-06T04:48:20.352Z,10.05
2023-05-06T04:50:47.008Z,10.80
2023-05-06T04:53:14.242Z,10.23
2023-05-06T04:55:41.197Z,9.52
2023-05-06T04:58:08.038Z,9.90
2023-05-06T05:00:35.096Z,9.10
2023-05-06T05:03:03.047Z,9.70
2023-05-06T05:05:34.885Z,10.70
2023-05-06T05:08:07.832Z,11.85
2023-05-06T05:10:48.037Z,10.18
2023-05-06T05:13:15.039Z,9.98
2023-05-06T05:15:47.050Z,10.48
2023-05-06T05:18:17.669Z,10.00
2023-05-06T05:20:46.993Z,10.45
2023-05-06T05:23:15.625Z,11.70
2023-05-06T05:25:51.844Z,12.13
2023-05-06T05:28:25.341Z,11.27
2023-05-06T05:31:01.863Z,11.57
2023-05-06T05:33:38.841Z,11.75
2023-05-06T05:36:15.281Z,11.07
2023-05-06T05:38:41.945Z,11.20
2023-05-06T05:41:27.021Z,11.27
2023-05-06T05:44:14.149Z,10.55
2023-05-06T05:47:02.150Z,11.43
2023-05-06T05:49:49.235Z,10.35
2023-05-06T05:52:36.590Z,12.15
2023-05-06T05:55:23.875Z,10.63
2023-05-06T05:58:09.858Z,14.60
2023-05-06T06:00:45.011Z,13.00
2023-05-06T06:03:20.335Z,12.43
2023-05-06T06:05:56.801Z,13.52
2023-05-06T06:08:32.496Z,13.73
2023-05-06T06:11:14.767Z,14.50
2023-05-06T06:13:51.746Z,14.68
2023-05-06T06:16:28.444Z,13.25
2023-05-06T06:18:58.335Z,13.70
2023-05-06T06:21:28.240Z,14.35
2023-05-06T06:23:54.851Z,15.05
2023-05-06T06:26:21.617Z,19.70
2023-05-06T06:28:48.261Z,17.42
2023-05-06T06:31:14.841Z,18.05
2023-05-06T06:33:41.476Z,15.88
2023-05-06T06:36:08.515Z,13.55
2023-05-06T06:38:35.775Z,14.88
2023-05-06T06:41:02.420Z,16.88
2023-05-06T06:43:29.009Z,17.30
2023-05-06T06:45:56.402Z,14.73
2023-05-06T06:48:23.151Z,16.27
2023-05-06T06:50:49.907Z,14.52
2023-05-06T06:53:16.936Z,16.52
2023-05-06T06:55:46.506Z,15.70
2023-05-06T06:58:13.132Z,16.08
2023-05-06T07:00:40.990Z,16.88
2023-05-06T07:03:07.782Z,18.90
2023-05-06T07:05:34.442Z,14.63
2023-05-06T07:08:01.043Z,15.07
2023-05-06T07:10:27.713Z,15.93
2023-05-06T07:12:54.679Z,15.65
2023-05-06T07:15:21.495Z,16.55
2023-05-06T07:17:48.112Z,14.45
2023-05-06T07:20:14.712Z,16.38
2023-05-06T07:22:41.424Z,15.90
2023-05-06T07:25:08.730Z,17.45
2023-05-06T07:27:35.522Z,16.23
2023-05-06T07:30:02.286Z,16.40
2023-05-06T07:32:29.001Z,14.85
2023-05-06T07:34:55.552Z,16.38
2023-05-06T07:37:22.105Z,18.00
2023-05-06T07:39:48.701Z,17.75
2023-05-06T07:42:15.355Z,16.98
2023-05-06T07:44:41.937Z,15.80
2023-05-06T07:47:08.571Z,15.77
2023-05-06T07:49:35.541Z,15.98
2023-05-06T07:52:03.513Z,15.88
2023-05-06T07:54:31.592Z,16.38
2023-05-06T07:56:58.383Z,16.05
2023-05-06T07:59:24.987Z,17.60
2023-05-06T08:01:51.751Z,15.75
2023-05-06T08:04:18.363Z,16.58
2023-05-06T08:06:44.966Z,16.63
2023-05-06T08:09:16.980Z,16.83
2023-05-06T08:11:49.879Z,16.17
2023-05-06T08:14:16.600Z,17.10
2023-05-06T08:16:43.236Z,13.50
2023-05-06T08:19:10.000Z,15.75
2023-05-06T08:21:36.641Z,15.60
2023-05-06T08:24:03.375Z,14.93
2023-05-06T08:26:29.956Z,16.30
2023-05-06T08:28:57.848Z,19.60
2023-05-06T08:31:24.532Z,19.85
2023-05-06T08:33:53.914Z,17.73
2023-05-06T08:36:22.097Z,18.30
2023-05-06T08:38:50.549Z,18.35
2023-05-06T08:43:49.858Z,14.27
2023-05-06T08:46:18.083Z,18.10
2023-05-06T08:48:45.435Z,17.23
2023-05-06T08:51:14.212Z,19.90
2023-05-06T08:53:43.845Z,19.80
2023-05-06T08:56:12.388Z,20.63
2023-05-06T09:01:06.119Z,15.80
2023-05-06T09:03:32.899Z,14.80
2023-05-06T09:05:59.554Z,16.35
2023-05-06T09:08:26.448Z,16.58
2023-05-06T09:10:53.068Z,18.27
2023-05-06T09:13:19.831Z,17.10
2023-05-06T09:15:49.984Z,15.40
2023-05-06T09:18:17.189Z,16.83
2023-05-06T09:20:48.583Z,15.98
2023-05-06T09:23:16.952Z,15.30
2023-05-06T09:25:45.912Z,14.43
2023-05-06T09:28:13.085Z,13.05
2023-05-06T09:30:44.626Z,13.57
2023-05-06T09:33:12.018Z,18.33
2023-05-06T09:35:40.854Z,17.08
2023-05-06T09:38:08.225Z,17.98
2023-05-06T09:40:38.524Z,20.35
2023-05-06T09:43:06.030Z,23.30
2023-05-06T09:45:33.300Z,21.00
2023-05-06T09:48:00.625Z,21.08
2023-05-06T09:50:27.461Z,20.35
2023-05-06T09:52:55.175Z,18.45
2023-05-06T09:55:23.236Z,16.95
2023-05-06T09:57:50.460Z,15.27
2023-05-06T10:00:17.481Z,11.57
2023-05-06T10:02:45.657Z,8.65
2023-05-06T10:05:13.616Z,8.60
2023-05-06T10:07:42.141Z,8.18
2023-05-06T10:10:11.554Z,7.72
2023-05-06T10:12:38.352Z,7.53
2023-05-06T10:15:05.491Z,7.20
2023-05-06T10:17:33.047Z,5.95
2023-05-06T10:20:01.687Z,6.15
2023-05-06T10:22:40.195Z,6.22
2023-05-06T10:25:19.356Z,7.00
2023-05-06T10:27:47.638Z,6.55
2023-05-06T10:30:17.140Z,6.80
2023-05-06T10:32:45.243Z,6.22
2023-05-06T10:35:42.933Z,5.07
2023-05-06T10:38:13.864Z,5.40
2023-05-06T10:40:40.836Z,4.80
2023-05-06T10:43:24.718Z,5.43
2023-05-06T10:46:07.035Z,4.60
2023-05-06T10:48:33.854Z,4.07
2023-05-06T10:51:15.876Z,4.13
2023-05-06T10:54:02.775Z,4.22
2023-05-06T10:56:59.388Z,4.50
2023-05-06T10:59:27.028Z,3.97
2023-05-06T11:02:08.468Z,4.23
2023-05-06T11:04:35.295Z,3.65
2023-05-06T11:07:13.104Z,4.18
2023-05-06T11:09:59.225Z,3.78
2023-05-06T11:12:45.168Z,2.75
2023-05-06T11:15:39.529Z,2.35
2023-05-06T11:18:24.506Z,3.15
2023-05-06T11:21:11.370Z,2.80
2023-05-06T11:23:47.162Z,2.20
2023-05-06T11:26:14.284Z,2.10
2023-05-06T11:28:44.320Z,1.92
2023-05-06T11:31:12.576Z,1.80
2023-05-06T11:33:46.384Z,1.52
2023-05-06T11:36:20.720Z,1.45
2023-05-06T11:38:56.478Z,1.42
2023-05-06T11:41:23.563Z,1.02
2023-05-06T11:43:51.732Z,1.40
2023-05-06T11:46:23.621Z,1.40
2023-05-06T11:48:50.569Z,1.20
2023-05-06T11:51:22.436Z,1.30
2023-05-06T11:53:49.041Z,2.28
2023-05-06T11:56:15.869Z,1.40
2023-05-06T11:58:42.462Z,1.45
2023-05-06T12:01:09.766Z,2.20
2023-05-06T12:03:36.786Z,2.65
2023-05-06T12:06:03.741Z,3.03
2023-05-06T12:08:34.218Z,2.97
2023-05-06T12:11:03.062Z,2.80
2023-05-06T12:13:29.850Z,2.40
2023-05-06T12:15:59.071Z,2.78
2023-05-06T12:18:26.054Z,2.65
2023-05-06T12:21:02.506Z,2.10
2023-05-06T12:23:29.205Z,2.10
2023-05-06T12:26:06.685Z,1.90
2023-05-06T12:28:35.478Z,2.23
2023-05-06T12:31:18.513Z,2.63
2023-05-06T12:33:46.497Z,2.83
2023-05-06T12:36:13.209Z,2.50
2023-05-06T12:38:56.913Z,2.83
2023-05-06T12:41:25.426Z,3.05
2023-05-06T12:46:19.798Z,2.95
2023-05-06T12:48:57.702Z,2.50
2023-05-06T12:51:24.638Z,2.03
2023-05-06T12:53:51.498Z,2.33
2023-05-06T12:56:18.755Z,2.80
2023-05-06T12:58:56.222Z,3.30
2023-05-06T13:01:23.027Z,3.23
2023-05-06T13:03:49.916Z,2.63
2023-05-06T13:06:16.605Z,2.40
2023-05-06T13:08:43.777Z,2.17
2023-05-06T13:11:10.821Z,2.03
2023-05-06T13:13:37.420Z,1.90
2023-05-06T13:16:04.643Z,2.00
2023-05-06T13:18:31.300Z,2.45
2023-05-06T13:21:00.259Z,2.33
2023-05-06T13:23:26.886Z,2.58
2023-05-06T13:26:03.501Z,2.55
2023-05-06T13:28:32.612Z,2.50
2023-05-06T13:30:59.343Z,2.70
2023-05-06T13:33:25.939Z,2.47
2023-05-06T13:35:52.539Z,2.40
2023-05-06T13:38:19.117Z,2.75
2023-05-06T13:40:48.184Z,3.10
2023-05-06T13:43:15.779Z,2.95
2023-05-06T13:45:44.136Z,3.20
2023-05-06T13:50:38.312Z,3.50
2023-05-06T13:53:05.468Z,3.33
2023-05-06T13:55:32.296Z,2.75
2023-05-06T13:57:58.868Z,2.90
2023-05-06T14:00:25.679Z,2.50
2023-05-06T14:02:52.363Z,2.67
2023-05-06T14:05:18.991Z,3.17
2023-05-06T14:07:45.777Z,3.20
2023-05-06T14:10:12.345Z,3.20
2023-05-06T14:12:39.088Z,2.90
2023-05-06T14:15:07.582Z,3.45
2023-05-06T14:17:34.370Z,2.72
2023-05-06T14:20:01.354Z,3.15
2023-05-06T14:22:28.940Z,2.90
2023-05-06T14:24:55.800Z,2.80
2023-05-06T14:27:22.394Z,2.10
2023-05-06T14:29:48.959Z,2.72
2023-05-06T14:32:15.816Z,3.28
2023-05-06T14:34:42.377Z,2.60
2023-05-06T14:37:08.967Z,2.97
2023-05-06T14:39:35.572Z,2.90
2023-05-06T14:42:02.200Z,2.20
2023-05-06T14:44:28.786Z,2.55
2023-05-06T14:46:56.384Z,2.17
2023-05-06T14:49:23.048Z,2.80
2023-05-06T14:51:49.915Z,2.70
2023-05-06T14:54:17.447Z,2.40
2023-05-06T14:56:49.367Z,2.63
2023-05-06T14:59:17.948Z,2.60
2023-05-06T15:01:44.860Z,2.40
2023-05-06T15:04:11.502Z,2.80
2023-05-06T15:06:38.113Z,2.85
2023-05-06T15:09:04.836Z,2.50
2023-05-06T15:11:32.234Z,2.70
2023-05-06T15:13:58.874Z,2.67
2023-05-06T15:16:25.638Z,2.40
2023-05-06T15:18:52.225Z,2.67
2023-05-06T15:21:18.812Z,3.05
2023-05-06T15:23:49.659Z,2.90
2023-05-06T15:26:16.273Z,2.60
2023-05-06T15:28:42.881Z,2.83
2023-05-06T15:31:09.507Z,2.97
2023-05-06T15:33:36.110Z,2.72
2023-05-06T15:36:02.750Z,2.60
2023-05-06T15:38:29.358Z,2.42
2023-05-06T15:40:55.998Z,3.30
2023-05-06T15:43:24.648Z,2.78
2023-05-06T15:45:51.575Z,2.72
2023-05-06T15:48:18.229Z,3.03
2023-05-06T15:50:44.806Z,2.80
2023-05-06T15:53:11.664Z,3.10
2023-05-06T15:55:46.580Z,2.80
2023-05-06T15:58:16.608Z,3.33
2023-05-06T16:00:43.306Z,3.33
2023-05-06T16:03:12.240Z,3.03
2023-05-06T16:05:39.524Z,3.42
2023-05-06T16:08:06.284Z,3.78
2023-05-06T16:10:33.042Z,3.80
2023-05-06T16:13:00.088Z,3.40
2023-05-06T16:15:26.713Z,3.33
2023-05-06T16:17:53.411Z,3.88
2023-05-06T16:20:20.106Z,3.50
2023-05-06T16:22:50.487Z,3.58
2023-05-06T16:25:17.190Z,3.63
2023-05-06T16:27:43.800Z,3.88
2023-05-06T16:30:11.028Z,3.60
2023-05-06T16:32:37.847Z,3.50
2023-05-06T16:35:04.660Z,4.22
2023-05-06T16:37:31.283Z,4.35
2023-05-06T16:39:57.895Z,5.00
2023-05-06T16:42:24.559Z,4.45
2023-05-06T16:44:51.675Z,4.43
2023-05-06T16:47:23.359Z,4.90
2023-05-06T16:49:50.706Z,5.13
2023-05-06T16:52:17.902Z,4.95
2023-05-06T16:54:44.634Z,5.47
2023-05-06T16:57:11.301Z,4.90
2023-05-06T16:59:38.062Z,4.88
2023-05-06T17:02:04.801Z,4.95
2023-05-06T17:04:31.431Z,6.28
2023-05-06T17:06:58.025Z,5.68
2023-05-06T17:09:24.608Z,6.68
2023-05-06T17:11:51.243Z,6.40
2023-05-06T17:14:19.797Z,6.10
2023-05-06T17:16:47.127Z,5.68
2023-05-06T17:19:13.851Z,6.43
2023-05-06T17:21:40.666Z,6.40
2023-05-06T17:24:07.320Z,6.15
2023-05-06T17:26:34.684Z,6.38
2023-05-06T17:29:01.356Z,5.25
2023-05-06T17:31:28.029Z,5.80
2023-05-06T17:33:54.761Z,5.70
2023-05-06T17:36:21.884Z,6.10
2023-05-06T17:38:48.597Z,5.82
2023-05-06T17:41:15.948Z,6.45
2023-05-06T17:43:43.367Z,5.30
2023-05-06T17:46:10.033Z,6.20
2023-05-06T17:48:36.708Z,6.18
2023-05-06T17:51:03.622Z,6.80
2023-05-06T17:53:32.357Z,6.28
2023-05-06T17:55:58.948Z,6.20
2023-05-06T17:58:25.558Z,6.80
2023-05-06T18:00:52.204Z,6.20
2023-05-06T18:03:18.910Z,5.82
2023-05-06T18:05:46.337Z,6.57
2023-05-06T18:08:13.031Z,6.35
2023-05-06T18:10:41.196Z,6.60
2023-05-06T18:15:34.682Z,6.25
2023-05-06T18:18:01.471Z,6.88
2023-05-06T18:20:28.418Z,6.38
2023-05-06T18:22:55.038Z,7.32
2023-05-06T18:25:21.740Z,6.18
2023-05-06T18:27:48.386Z,6.05
2023-05-06T18:30:16.017Z,6.60
2023-05-06T18:32:42.622Z,6.47
2023-05-06T18:35:10.939Z,6.55
2023-05-06T18:37:38.512Z,6.88
2023-05-06T18:40:06.162Z,7.85
2023-05-06T18:42:33.941Z,6.73
2023-05-06T18:45:04.668Z,7.55
2023-05-06T18:47:32.266Z,6.93
2023-05-06T18:50:00.733Z,6.57
2023-05-06T18:52:27.610Z,7.05
2023-05-06T18:54:54.180Z,6.53
2023-05-06T18:57:21.033Z,6.60
2023-05-06T18:59:47.807Z,6.85
2023-05-06T19:02:14.388Z,6.47
2023-05-06T19:04:41.009Z,6.70
2023-05-06T19:07:07.658Z,6.35
2023-05-06T19:09:37.119Z,6.32
2023-05-06T19:12:04.334Z,6.70
2023-05-06T19:14:32.396Z,6.47
2023-05-06T19:16:59.206Z,6.70
2023-05-06T19:19:25.992Z,6.93
2023-05-06T19:21:52.659Z,7.28
2023-05-06T19:24:19.249Z,6.90
2023-05-06T19:26:46.324Z,6.75
2023-05-06T19:29:14.674Z,6.32
2023-05-06T19:31:41.246Z,6.53
2023-05-06T19:34:08.448Z,6.75
2023-05-06T19:36:35.065Z,6.68
2023-05-06T19:39:01.654Z,6.50
2023-05-06T19:41:28.280Z,6.90
2023-05-06T19:43:54.834Z,7.15
2023-05-06T19:46:21.489Z,6.45
2023-05-06T19:48:48.124Z,5.85
2023-05-06T19:51:14.725Z,6.93
2023-05-06T19:53:41.331Z,6.40
2023-05-06T19:56:12.474Z,5.38
2023-05-06T19:58:40.345Z,5.80
2023-05-06T20:01:06.960Z,6.63
2023-05-06T20:03:33.780Z,5.72
2023-05-06T20:06:00.670Z,5.55
2023-05-06T20:08:27.292Z,5.80
2023-05-06T20:10:53.936Z,6.20
2023-05-06T20:13:20.746Z,7.53
2023-05-06T20:15:47.849Z,7.20
2023-05-06T20:18:14.646Z,7.32
2023-05-06T20:20:41.442Z,7.68
2023-05-06T20:23:08.106Z,8.10
2023-05-06T20:25:37.084Z,8.63
2023-05-06T20:28:05.719Z,8.98
2023-05-06T20:30:32.887Z,9.40
2023-05-06T20:32:59.568Z,8.93
2023-05-06T20:35:27.070Z,9.95
2023-05-06T20:37:54.664Z,11.35
2023-05-06T20:40:21.795Z,11.70
2023-05-06T20:42:48.571Z,10.23
2023-05-06T20:45:15.182Z,11.55
2023-05-06T20:47:41.838Z,12.10
2023-05-06T20:50:09.165Z,12.30
2023-05-06T20:52:35.940Z,12.02
2023-05-06T20:55:03.298Z,13.20
2023-05-06T20:57:29.946Z,13.63
2023-05-06T20:59:56.633Z,12.73
2023-05-06T21:02:23.550Z,13.02
2023-05-06T21:04:50.948Z,11.82
2023-05-06T21:07:17.938Z,12.65
2023-05-06T21:09:44.577Z,14.10
2023-05-06T21:12:11.262Z,14.68
2023-05-06T21:14:37.816Z,15.10
2023-05-06T21:17:04.800Z,15.73
2023-05-06T21:19:31.423Z,14.85
2023-05-06T21:21:58.056Z,15.15
2023-05-06T21:24:24.627Z,15.55
2023-05-06T21:26:51.753Z,16.52
2023-05-06T21:29:18.318Z,17.00
2023-05-06T21:31:44.883Z,16.92
2023-05-06T21:34:11.559Z,17.85
2023-05-06T21:36:38.279Z,17.50
2023-05-06T21:39:09.999Z,18.40
2023-05-06T21:41:36.759Z,16.42
2023-05-06T21:44:04.257Z,16.48
2023-05-06T21:46:31.683Z,16.55
2023-05-06T21:48:59.005Z,16.67
2023-05-06T21:51:28.026Z,16.08
2023-05-06T21:53:54.598Z,16.13
2023-05-06T21:56:21.962Z,18.15
2023-05-06T21:58:48.775Z,18.23
2023-05-06T22:01:15.634Z,20.50
2023-05-06T22:03:42.450Z,19.50
2023-05-06T22:06:09.087Z,17.75
2023-05-06T22:08:35.658Z,18.05
2023-05-06T22:11:02.331Z,18.20
2023-05-06T22:13:29.092Z,17.05
2023-05-06T22:15:55.863Z,18.10
2023-05-06T22:18:22.536Z,17.45
2023-05-06T22:20:50.789Z,17.80
2023-05-06T22:23:19.173Z,19.30
2023-05-06T22:25:46.557Z,17.88
2023-05-06T22:28:13.133Z,20.10
2023-05-06T22:30:39.699Z,18.38
2023-05-06T22:33:06.418Z,19.67
2023-05-06T22:35:33.093Z,19.35
2023-05-06T22:37:59.674Z,20.13
2023-05-06T22:40:27.945Z,18.58
2023-05-06T22:42:54.934Z,18.70
2023-05-06T22:45:21.514Z,19.42
2023-05-06T22:47:48.204Z,19.35
2023-05-06T22:50:14.785Z,20.25
2023-05-06T22:52:41.546Z,21.10
2023-05-06T22:55:09.761Z,19.77
2023-05-06T22:57:36.645Z,20.77
2023-05-06T23:00:04.035Z,21.83
2023-05-06T23:02:30.826Z,20.88
2023-05-06T23:04:57.667Z,20.30
2023-05-06T23:07:24.268Z,21.88
2023-05-06T23:09:50.993Z,21.45
2023-05-06T23:12:17.583Z,20.08
2023-05-06T23:14:44.137Z,21.30
2023-05-06T23:17:10.930Z,20.48
2023-05-06T23:19:37.545Z,20.40
2023-05-06T23:22:04.610Z,20.50
2023-05-06T23:24:31.271Z,20.55
2023-05-06T23:26:57.917Z,20.27
2023-05-06T23:29:24.529Z,20.70
2023-05-06T23:31:51.148Z,19.75
2023-05-06T23:34:17.778Z,20.27
2023-05-06T23:36:44.431Z,20.38
2023-05-06T23:39:12.308Z,21.45
2023-05-06T23:41:39.039Z,20.65
2023-05-06T23:44:06.399Z,22.13
2023-05-06T23:46:33.148Z,21.50
2023-05-06T23:48:59.791Z,20.92
2023-05-06T23:51:26.591Z,21.92
2023-05-06T23:53:53.276Z,21.95
2023-05-06T23:56:21.671Z,22.98
2023-05-06T23:58:48.380Z,21.52
